sensor_id;sensor_type;location;lat;lon;timestamp;P1;durP1;ratioP1;P2;durP2;ratioP2
26965;SDS011;14522;52.068;4.414;2022-12-24T00:01:31;30.83;;;5.03;;
26965;SDS011;14522;52.068;4.414;2022-12-24T00:03:57;20.35;;;3.58;;
26965;SDS011;14522;52.068;4.414;2022-12-24T00:06:24;29.23;;;4.55;;
26965;SDS011;14522;52.068;4.414;2022-12-24T00:08:50;22.30;;;3.38;;
26965;SDS011;14522;52.068;4.414;2022-12-24T00:11:17;20.40;;;4.20;;
26965;SDS011;14522;52.068;4.414;2022-12-24T00:13:44;17.05;;;4.38;;
26965;SDS011;14522;52.068;4.414;2022-12-24T00:16:10;21.70;;;4.78;;
26965;SDS011;14522;52.068;4.414;2022-12-24T00:18:37;25.88;;;4.63;;
26965;SDS011;14522;52.068;4.414;2022-12-24T00:21:11;18.90;;;3.17;;
26965;SDS011;14522;52.068;4.414;2022-12-24T00:23:38;21.90;;;3.65;;
26965;SDS011;14522;52.068;4.414;2022-12-24T00:26:04;14.40;;;3.17;;
26965;SDS011;14522;52.068;4.414;2022-12-24T00:28:31;30.45;;;4.18;;
26965;SDS011;14522;52.068;4.414;2022-12-24T00:30:57;26.30;;;4.55;;
26965;SDS011;14522;52.068;4.414;2022-12-24T00:33:24;20.38;;;4.15;;
26965;SDS011;14522;52.068;4.414;2022-12-24T00:35:51;13.13;;;2.80;;
26965;SDS011;14522;52.068;4.414;2022-12-24T00:38:17;20.40;;;4.00;;
26965;SDS011;14522;52.068;4.414;2022-12-24T00:40:44;31.85;;;4.38;;
26965;SDS011;14522;52.068;4.414;2022-12-24T00:43:10;26.42;;;5.20;;
26965;SDS011;14522;52.068;4.414;2022-12-24T00:45:36;18.58;;;3.78;;
26965;SDS011;14522;52.068;4.414;2022-12-24T00:48:03;21.27;;;4.60;;
26965;SDS011;14522;52.068;4.414;2022-12-24T00:50:29;31.02;;;4.82;;
26965;SDS011;14522;52.068;4.414;2022-12-24T00:52:56;27.98;;;4.05;;
26965;SDS011;14522;52.068;4.414;2022-12-24T00:55:22;26.45;;;4.00;;
26965;SDS011;14522;52.068;4.414;2022-12-24T00:57:48;32.22;;;4.70;;
26965;SDS011;14522;52.068;4.414;2022-12-24T01:00:15;28.75;;;4.80;;
26965;SDS011;14522;52.068;4.414;2022-12-24T01:02:43;27.02;;;3.25;;
26965;SDS011;14522;52.068;4.414;2022-12-24T01:05:10;19.10;;;3.85;;
26965;SDS011;14522;52.068;4.414;2022-12-24T01:07:37;21.67;;;3.97;;
26965;SDS011;14522;52.068;4.414;2022-12-24T01:10:04;25.00;;;3.95;;
26965;SDS011;14522;52.068;4.414;2022-12-24T01:12:31;20.38;;;3.38;;
26965;SDS011;14522;52.068;4.414;2022-12-24T01:14:57;14.82;;;3.45;;
26965;SDS011;14522;52.068;4.414;2022-12-24T01:17:23;26.48;;;5.55;;
26965;SDS011;14522;52.068;4.414;2022-12-24T01:19:50;23.60;;;4.18;;
26965;SDS011;14522;52.068;4.414;2022-12-24T01:22:16;25.17;;;4.50;;
26965;SDS011;14522;52.068;4.414;2022-12-24T01:24:43;24.02;;;4.53;;
26965;SDS011;14522;52.068;4.414;2022-12-24T01:27:09;22.48;;;3.78;;
26965;SDS011;14522;52.068;4.414;2022-12-24T01:29:35;17.42;;;3.10;;
26965;SDS011;14522;52.068;4.414;2022-12-24T01:32:02;28.58;;;4.53;;
26965;SDS011;14522;52.068;4.414;2022-12-24T01:34:28;27.67;;;4.78;;
26965;SDS011;14522;52.068;4.414;2022-12-24T01:36:55;28.17;;;3.92;;
26965;SDS011;14522;52.068;4.414;2022-12-24T01:39:21;22.85;;;4.07;;
26965;SDS011;14522;52.068;4.414;2022-12-24T01:41:47;28.33;;;4.22;;
26965;SDS011;14522;52.068;4.414;2022-12-24T01:44:33;24.42;;;4.13;;
26965;SDS011;14522;52.068;4.414;2022-12-24T01:47:07;25.25;;;4.53;;
26965;SDS011;14522;52.068;4.414;2022-12-24T01:49:35;24.17;;;3.78;;
26965;SDS011;14522;52.068;4.414;2022-12-24T01:52:04;25.98;;;4.75;;
26965;SDS011;14522;52.068;4.414;2022-12-24T01:54:33;25.10;;;4.40;;
26965;SDS011;14522;52.068;4.414;2022-12-24T01:57:24;18.10;;;3.47;;
26965;SDS011;14522;52.068;4.414;2022-12-24T01:59:54;20.67;;;3.92;;
26965;SDS011;14522;52.068;4.414;2022-12-24T02:02:23;16.60;;;3.63;;
26965;SDS011;14522;52.068;4.414;2022-12-24T02:04:58;23.67;;;3.97;;
26965;SDS011;14522;52.068;4.414;2022-12-24T02:07:26;20.65;;;3.90;;
26965;SDS011;14522;52.068;4.414;2022-12-24T02:09:55;24.63;;;4.28;;
26965;SDS011;14522;52.068;4.414;2022-12-24T02:12:23;24.75;;;3.22;;
26965;SDS011;14522;52.068;4.414;2022-12-24T02:14:49;22.27;;;4.15;;
26965;SDS011;14522;52.068;4.414;2022-12-24T02:27:56;26.33;;;4.13;;
26965;SDS011;14522;52.068;4.414;2022-12-24T02:35:49;25.05;;;3.15;;
26965;SDS011;14522;52.068;4.414;2022-12-24T02:38:15;17.13;;;3.20;;
26965;SDS011;14522;52.068;4.414;2022-12-24T02:40:47;19.55;;;3.08;;
26965;SDS011;14522;52.068;4.414;2022-12-24T02:43:19;22.55;;;3.72;;
26965;SDS011;14522;52.068;4.414;2022-12-24T02:45:48;27.25;;;4.28;;
26965;SDS011;14522;52.068;4.414;2022-12-24T02:48:24;21.48;;;4.35;;
26965;SDS011;14522;52.068;4.414;2022-12-24T02:50:55;25.65;;;5.20;;
26965;SDS011;14522;52.068;4.414;2022-12-24T02:53:21;27.20;;;4.68;;
26965;SDS011;14522;52.068;4.414;2022-12-24T02:58:58;23.17;;;4.30;;
26965;SDS011;14522;52.068;4.414;2022-12-24T03:12:09;26.05;;;4.45;;
26965;SDS011;14522;52.068;4.414;2022-12-24T03:14:37;32.15;;;4.32;;
26965;SDS011;14522;52.068;4.414;2022-12-24T03:17:05;33.13;;;5.07;;
26965;SDS011;14522;52.068;4.414;2022-12-24T03:19:32;24.38;;;4.07;;
26965;SDS011;14522;52.068;4.414;2022-12-24T03:21:58;30.95;;;4.88;;
26965;SDS011;14522;52.068;4.414;2022-12-24T03:24:25;27.75;;;4.85;;
26965;SDS011;14522;52.068;4.414;2022-12-24T03:26:52;15.63;;;3.53;;
26965;SDS011;14522;52.068;4.414;2022-12-24T03:29:18;26.13;;;5.15;;
26965;SDS011;14522;52.068;4.414;2022-12-24T03:31:46;21.92;;;3.35;;
26965;SDS011;14522;52.068;4.414;2022-12-24T03:34:13;35.13;;;4.28;;
26965;SDS011;14522;52.068;4.414;2022-12-24T03:36:40;22.95;;;5.30;;
26965;SDS011;14522;52.068;4.414;2022-12-24T03:39:07;25.25;;;4.60;;
26965;SDS011;14522;52.068;4.414;2022-12-24T03:41:35;27.65;;;3.65;;
26965;SDS011;14522;52.068;4.414;2022-12-24T03:44:01;22.75;;;3.38;;
26965;SDS011;14522;52.068;4.414;2022-12-24T03:46:28;24.88;;;4.60;;
26965;SDS011;14522;52.068;4.414;2022-12-24T03:48:54;37.85;;;5.43;;
26965;SDS011;14522;52.068;4.414;2022-12-24T03:51:21;24.65;;;3.90;;
26965;SDS011;14522;52.068;4.414;2022-12-24T03:53:48;21.85;;;3.83;;
26965;SDS011;14522;52.068;4.414;2022-12-24T03:56:15;24.02;;;4.18;;
26965;SDS011;14522;52.068;4.414;2022-12-24T03:58:44;28.15;;;4.22;;
26965;SDS011;14522;52.068;4.414;2022-12-24T04:01:10;21.17;;;4.07;;
26965;SDS011;14522;52.068;4.414;2022-12-24T04:03:37;25.40;;;3.67;;
26965;SDS011;14522;52.068;4.414;2022-12-24T04:06:04;24.20;;;3.63;;
26965;SDS011;14522;52.068;4.414;2022-12-24T04:08:30;23.38;;;3.40;;
26965;SDS011;14522;52.068;4.414;2022-12-24T04:10:57;26.73;;;4.07;;
26965;SDS011;14522;52.068;4.414;2022-12-24T04:13:27;28.52;;;4.35;;
26965;SDS011;14522;52.068;4.414;2022-12-24T04:16:04;26.73;;;4.25;;
26965;SDS011;14522;52.068;4.414;2022-12-24T04:18:30;32.20;;;5.10;;
26965;SDS011;14522;52.068;4.414;2022-12-24T04:20:57;22.90;;;4.15;;
26965;SDS011;14522;52.068;4.414;2022-12-24T04:23:24;23.00;;;3.50;;
26965;SDS011;14522;52.068;4.414;2022-12-24T04:25:50;21.95;;;4.15;;
26965;SDS011;14522;52.068;4.414;2022-12-24T04:28:17;27.80;;;4.40;;
26965;SDS011;14522;52.068;4.414;2022-12-24T04:30:43;30.23;;;4.88;;
26965;SDS011;14522;52.068;4.414;2022-12-24T04:33:09;27.15;;;3.97;;
26965;SDS011;14522;52.068;4.414;2022-12-24T04:35:39;23.70;;;3.97;;
26965;SDS011;14522;52.068;4.414;2022-12-24T04:38:07;23.55;;;4.10;;
26965;SDS011;14522;52.068;4.414;2022-12-24T04:40:33;21.92;;;3.55;;
26965;SDS011;14522;52.068;4.414;2022-12-24T04:43:00;26.48;;;4.70;;
26965;SDS011;14522;52.068;4.414;2022-12-24T04:45:26;24.23;;;4.28;;
26965;SDS011;14522;52.068;4.414;2022-12-24T04:47:52;32.95;;;4.38;;
26965;SDS011;14522;52.068;4.414;2022-12-24T04:50:19;25.00;;;3.83;;
26965;SDS011;14522;52.068;4.414;2022-12-24T04:52:45;30.05;;;4.38;;
26965;SDS011;14522;52.068;4.414;2022-12-24T04:55:11;23.85;;;4.43;;
26965;SDS011;14522;52.068;4.414;2022-12-24T04:57:38;25.33;;;3.90;;
26965;SDS011;14522;52.068;4.414;2022-12-24T05:00:04;25.00;;;3.70;;
26965;SDS011;14522;52.068;4.414;2022-12-24T05:02:31;23.73;;;4.18;;
26965;SDS011;14522;52.068;4.414;2022-12-24T05:04:58;32.63;;;5.22;;
26965;SDS011;14522;52.068;4.414;2022-12-24T05:07:24;29.45;;;5.28;;
26965;SDS011;14522;52.068;4.414;2022-12-24T05:09:50;28.92;;;5.07;;
26965;SDS011;14522;52.068;4.414;2022-12-24T05:12:17;31.83;;;4.82;;
26965;SDS011;14522;52.068;4.414;2022-12-24T05:14:43;33.33;;;4.97;;
26965;SDS011;14522;52.068;4.414;2022-12-24T05:17:09;33.72;;;4.97;;
26965;SDS011;14522;52.068;4.414;2022-12-24T05:19:36;28.35;;;4.30;;
26965;SDS011;14522;52.068;4.414;2022-12-24T05:22:02;33.92;;;4.85;;
26965;SDS011;14522;52.068;4.414;2022-12-24T05:24:47;23.33;;;3.20;;
26965;SDS011;14522;52.068;4.414;2022-12-24T05:27:32;31.13;;;4.70;;
26965;SDS011;14522;52.068;4.414;2022-12-24T05:29:59;26.75;;;4.82;;
26965;SDS011;14522;52.068;4.414;2022-12-24T05:32:25;31.58;;;4.60;;
26965;SDS011;14522;52.068;4.414;2022-12-24T05:34:51;25.52;;;4.03;;
26965;SDS011;14522;52.068;4.414;2022-12-24T05:37:18;34.28;;;4.50;;
26965;SDS011;14522;52.068;4.414;2022-12-24T05:39:44;36.65;;;5.60;;
26965;SDS011;14522;52.068;4.414;2022-12-24T05:42:10;31.15;;;5.18;;
26965;SDS011;14522;52.068;4.414;2022-12-24T05:44:37;32.97;;;4.47;;
26965;SDS011;14522;52.068;4.414;2022-12-24T05:47:03;39.08;;;5.00;;
26965;SDS011;14522;52.068;4.414;2022-12-24T05:49:30;29.70;;;4.75;;
26965;SDS011;14522;52.068;4.414;2022-12-24T05:51:56;30.70;;;5.65;;
26965;SDS011;14522;52.068;4.414;2022-12-24T05:54:23;39.17;;;5.40;;
26965;SDS011;14522;52.068;4.414;2022-12-24T05:56:49;27.30;;;4.93;;
26965;SDS011;14522;52.068;4.414;2022-12-24T05:59:15;32.47;;;4.80;;
26965;SDS011;14522;52.068;4.414;2022-12-24T06:01:42;24.13;;;4.78;;
26965;SDS011;14522;52.068;4.414;2022-12-24T06:04:12;29.52;;;4.03;;
26965;SDS011;14522;52.068;4.414;2022-12-24T06:06:39;28.10;;;4.55;;
26965;SDS011;14522;52.068;4.414;2022-12-24T06:09:05;38.13;;;4.78;;
26965;SDS011;14522;52.068;4.414;2022-12-24T06:11:32;32.20;;;5.22;;
26965;SDS011;14522;52.068;4.414;2022-12-24T06:13:58;22.58;;;3.90;;
26965;SDS011;14522;52.068;4.414;2022-12-24T06:16:25;29.63;;;5.00;;
26965;SDS011;14522;52.068;4.414;2022-12-24T06:18:51;32.00;;;5.80;;
26965;SDS011;14522;52.068;4.414;2022-12-24T06:21:18;31.98;;;5.10;;
26965;SDS011;14522;52.068;4.414;2022-12-24T06:23:44;29.98;;;4.75;;
26965;SDS011;14522;52.068;4.414;2022-12-24T06:26:12;29.83;;;5.15;;
26965;SDS011;14522;52.068;4.414;2022-12-24T06:28:39;42.70;;;6.38;;
26965;SDS011;14522;52.068;4.414;2022-12-24T06:31:05;37.85;;;6.32;;
26965;SDS011;14522;52.068;4.414;2022-12-24T06:33:32;41.08;;;6.93;;
26965;SDS011;14522;52.068;4.414;2022-12-24T06:35:59;39.28;;;5.53;;
26965;SDS011;14522;52.068;4.414;2022-12-24T06:38:25;33.78;;;5.15;;
26965;SDS011;14522;52.068;4.414;2022-12-24T06:40:52;44.15;;;5.85;;
26965;SDS011;14522;52.068;4.414;2022-12-24T06:43:22;35.90;;;6.32;;
26965;SDS011;14522;52.068;4.414;2022-12-24T06:45:48;32.63;;;5.45;;
26965;SDS011;14522;52.068;4.414;2022-12-24T06:48:15;38.10;;;5.38;;
26965;SDS011;14522;52.068;4.414;2022-12-24T06:50:41;31.27;;;4.60;;
26965;SDS011;14522;52.068;4.414;2022-12-24T06:53:08;38.50;;;5.45;;
26965;SDS011;14522;52.068;4.414;2022-12-24T06:55:35;34.65;;;4.95;;
26965;SDS011;14522;52.068;4.414;2022-12-24T06:58:02;39.58;;;6.93;;
26965;SDS011;14522;52.068;4.414;2022-12-24T07:00:28;26.30;;;5.43;;
26965;SDS011;14522;52.068;4.414;2022-12-24T07:02:54;28.75;;;5.60;;
26965;SDS011;14522;52.068;4.414;2022-12-24T07:05:21;28.83;;;4.90;;
26965;SDS011;14522;52.068;4.414;2022-12-24T07:07:47;27.85;;;4.40;;
26965;SDS011;14522;52.068;4.414;2022-12-24T07:10:14;29.50;;;5.57;;
26965;SDS011;14522;52.068;4.414;2022-12-24T07:12:41;32.05;;;5.43;;
26965;SDS011;14522;52.068;4.414;2022-12-24T07:15:08;33.40;;;5.15;;
26965;SDS011;14522;52.068;4.414;2022-12-24T07:17:34;36.85;;;5.82;;
26965;SDS011;14522;52.068;4.414;2022-12-24T07:20:01;46.50;;;4.90;;
26965;SDS011;14522;52.068;4.414;2022-12-24T07:22:27;29.83;;;5.65;;
26965;SDS011;14522;52.068;4.414;2022-12-24T07:24:54;33.22;;;4.75;;
26965;SDS011;14522;52.068;4.414;2022-12-24T07:27:20;35.75;;;5.95;;
26965;SDS011;14522;52.068;4.414;2022-12-24T07:29:46;23.02;;;4.75;;
26965;SDS011;14522;52.068;4.414;2022-12-24T07:32:13;39.00;;;6.45;;
26965;SDS011;14522;52.068;4.414;2022-12-24T07:34:39;26.35;;;4.72;;
26965;SDS011;14522;52.068;4.414;2022-12-24T07:37:06;35.67;;;5.90;;
26965;SDS011;14522;52.068;4.414;2022-12-24T07:39:33;27.88;;;5.43;;
26965;SDS011;14522;52.068;4.414;2022-12-24T07:41:59;36.53;;;4.50;;
26965;SDS011;14522;52.068;4.414;2022-12-24T07:44:25;41.28;;;5.07;;
26965;SDS011;14522;52.068;4.414;2022-12-24T07:46:52;29.45;;;4.90;;
26965;SDS011;14522;52.068;4.414;2022-12-24T07:49:19;41.45;;;5.22;;
26965;SDS011;14522;52.068;4.414;2022-12-24T07:51:45;40.25;;;5.82;;
26965;SDS011;14522;52.068;4.414;2022-12-24T07:54:11;28.83;;;5.65;;
26965;SDS011;14522;52.068;4.414;2022-12-24T07:56:38;34.75;;;5.32;;
26965;SDS011;14522;52.068;4.414;2022-12-24T07:59:04;35.83;;;5.47;;
26965;SDS011;14522;52.068;4.414;2022-12-24T08:01:30;24.88;;;4.57;;
26965;SDS011;14522;52.068;4.414;2022-12-24T08:03:57;29.67;;;4.75;;
26965;SDS011;14522;52.068;4.414;2022-12-24T08:06:23;36.30;;;5.20;;
26965;SDS011;14522;52.068;4.414;2022-12-24T08:08:50;37.10;;;5.57;;
26965;SDS011;14522;52.068;4.414;2022-12-24T08:11:16;31.02;;;5.13;;
26965;SDS011;14522;52.068;4.414;2022-12-24T08:13:42;27.05;;;4.85;;
26965;SDS011;14522;52.068;4.414;2022-12-24T08:16:09;37.45;;;6.05;;
26965;SDS011;14522;52.068;4.414;2022-12-24T08:18:35;39.90;;;6.18;;
26965;SDS011;14522;52.068;4.414;2022-12-24T08:21:02;36.47;;;5.53;;
26965;SDS011;14522;52.068;4.414;2022-12-24T08:23:28;36.80;;;5.38;;
26965;SDS011;14522;52.068;4.414;2022-12-24T08:25:55;34.88;;;6.47;;
26965;SDS011;14522;52.068;4.414;2022-12-24T08:28:21;32.65;;;4.75;;
26965;SDS011;14522;52.068;4.414;2022-12-24T08:30:48;38.40;;;6.68;;
26965;SDS011;14522;52.068;4.414;2022-12-24T08:33:15;40.50;;;6.00;;
26965;SDS011;14522;52.068;4.414;2022-12-24T08:35:46;30.17;;;4.47;;
26965;SDS011;14522;52.068;4.414;2022-12-24T08:38:12;36.53;;;6.47;;
26965;SDS011;14522;52.068;4.414;2022-12-24T08:40:39;40.15;;;6.03;;
26965;SDS011;14522;52.068;4.414;2022-12-24T08:43:05;39.10;;;5.90;;
26965;SDS011;14522;52.068;4.414;2022-12-24T08:45:31;34.75;;;6.05;;
26965;SDS011;14522;52.068;4.414;2022-12-24T08:48:05;35.65;;;4.60;;
26965;SDS011;14522;52.068;4.414;2022-12-24T08:50:32;37.40;;;4.88;;
26965;SDS011;14522;52.068;4.414;2022-12-24T08:52:58;36.35;;;4.70;;
26965;SDS011;14522;52.068;4.414;2022-12-24T08:55:25;40.90;;;5.35;;
26965;SDS011;14522;52.068;4.414;2022-12-24T08:57:51;28.30;;;4.93;;
26965;SDS011;14522;52.068;4.414;2022-12-24T09:00:18;37.33;;;6.18;;
26965;SDS011;14522;52.068;4.414;2022-12-24T09:02:44;31.95;;;5.65;;
26965;SDS011;14522;52.068;4.414;2022-12-24T09:05:11;13.90;;;3.55;;
26965;SDS011;14522;52.068;4.414;2022-12-24T09:07:37;30.17;;;4.32;;
26965;SDS011;14522;52.068;4.414;2022-12-24T09:10:04;27.10;;;4.55;;
26965;SDS011;14522;52.068;4.414;2022-12-24T09:12:30;21.05;;;3.63;;
26965;SDS011;14522;52.068;4.414;2022-12-24T09:14:56;29.38;;;4.07;;
26965;SDS011;14522;52.068;4.414;2022-12-24T09:17:29;20.48;;;4.10;;
26965;SDS011;14522;52.068;4.414;2022-12-24T09:19:55;31.95;;;5.18;;
26965;SDS011;14522;52.068;4.414;2022-12-24T09:22:22;27.83;;;5.30;;
26965;SDS011;14522;52.068;4.414;2022-12-24T09:24:48;23.23;;;3.63;;
26965;SDS011;14522;52.068;4.414;2022-12-24T09:27:14;29.70;;;4.00;;
26965;SDS011;14522;52.068;4.414;2022-12-24T09:29:41;32.17;;;4.47;;
26965;SDS011;14522;52.068;4.414;2022-12-24T09:32:07;28.00;;;4.45;;
26965;SDS011;14522;52.068;4.414;2022-12-24T09:34:33;26.27;;;3.85;;
26965;SDS011;14522;52.068;4.414;2022-12-24T09:37:00;39.47;;;5.55;;
26965;SDS011;14522;52.068;4.414;2022-12-24T09:39:28;33.78;;;5.28;;
26965;SDS011;14522;52.068;4.414;2022-12-24T09:47:26;29.25;;;5.50;;
26965;SDS011;14522;52.068;4.414;2022-12-24T09:49:55;31.17;;;5.22;;
26965;SDS011;14522;52.068;4.414;2022-12-24T09:52:26;31.90;;;5.47;;
26965;SDS011;14522;52.068;4.414;2022-12-24T09:54:59;32.47;;;4.93;;
26965;SDS011;14522;52.068;4.414;2022-12-24T09:57:27;32.03;;;4.18;;
26965;SDS011;14522;52.068;4.414;2022-12-24T09:59:55;25.75;;;4.28;;
26965;SDS011;14522;52.068;4.414;2022-12-24T10:02:21;29.23;;;4.50;;
26965;SDS011;14522;52.068;4.414;2022-12-24T10:04:48;17.90;;;3.13;;
26965;SDS011;14522;52.068;4.414;2022-12-24T10:12:28;29.38;;;4.03;;
26965;SDS011;14522;52.068;4.414;2022-12-24T10:17:45;21.63;;;3.30;;
26965;SDS011;14522;52.068;4.414;2022-12-24T10:27:45;19.08;;;3.13;;
26965;SDS011;14522;52.068;4.414;2022-12-24T10:30:15;29.20;;;4.68;;
26965;SDS011;14522;52.068;4.414;2022-12-24T10:32:46;30.40;;;4.40;;
26965;SDS011;14522;52.068;4.414;2022-12-24T10:35:18;26.85;;;3.80;;
26965;SDS011;14522;52.068;4.414;2022-12-24T10:37:46;20.00;;;3.28;;
26965;SDS011;14522;52.068;4.414;2022-12-24T10:40:29;24.17;;;3.60;;
26965;SDS011;14522;52.068;4.414;2022-12-24T10:42:57;27.15;;;4.45;;
26965;SDS011;14522;52.068;4.414;2022-12-24T10:45:24;24.77;;;3.33;;
26965;SDS011;14522;52.068;4.414;2022-12-24T10:47:53;30.75;;;4.35;;
26965;SDS011;14522;52.068;4.414;2022-12-24T10:50:30;21.95;;;3.67;;
26965;SDS011;14522;52.068;4.414;2022-12-24T10:55:43;16.20;;;3.33;;
26965;SDS011;14522;52.068;4.414;2022-12-24T10:58:14;21.98;;;3.67;;
26965;SDS011;14522;52.068;4.414;2022-12-24T11:00:41;21.90;;;3.75;;
26965;SDS011;14522;52.068;4.414;2022-12-24T11:05:37;25.15;;;3.40;;
26965;SDS011;14522;52.068;4.414;2022-12-24T11:10:30;16.30;;;3.00;;
26965;SDS011;14522;52.068;4.414;2022-12-24T11:12:58;21.65;;;3.00;;
26965;SDS011;14522;52.068;4.414;2022-12-24T11:15:44;18.50;;;3.08;;
26965;SDS011;14522;52.068;4.414;2022-12-24T11:18:13;17.98;;;3.05;;
26965;SDS011;14522;52.068;4.414;2022-12-24T11:20:40;21.00;;;3.22;;
26965;SDS011;14522;52.068;4.414;2022-12-24T11:23:14;20.00;;;3.50;;
26965;SDS011;14522;52.068;4.414;2022-12-24T11:25:41;24.95;;;4.25;;
26965;SDS011;14522;52.068;4.414;2022-12-24T11:28:18;33.63;;;4.57;;
26965;SDS011;14522;52.068;4.414;2022-12-24T11:33:31;21.58;;;3.33;;
26965;SDS011;14522;52.068;4.414;2022-12-24T11:36:05;24.00;;;4.05;;
26965;SDS011;14522;52.068;4.414;2022-12-24T11:38:32;20.30;;;3.85;;
26965;SDS011;14522;52.068;4.414;2022-12-24T11:41:06;24.98;;;3.67;;
26965;SDS011;14522;52.068;4.414;2022-12-24T11:43:43;23.25;;;3.97;;
26965;SDS011;14522;52.068;4.414;2022-12-24T11:46:15;22.58;;;4.38;;
26965;SDS011;14522;52.068;4.414;2022-12-24T11:48:42;25.25;;;4.07;;
26965;SDS011;14522;52.068;4.414;2022-12-24T11:51:19;20.13;;;4.38;;
26965;SDS011;14522;52.068;4.414;2022-12-24T11:53:57;23.98;;;3.22;;
26965;SDS011;14522;52.068;4.414;2022-12-24T11:56:40;14.23;;;2.58;;
26965;SDS011;14522;52.068;4.414;2022-12-24T11:59:11;28.10;;;4.32;;
26965;SDS011;14522;52.068;4.414;2022-12-24T12:01:48;20.85;;;3.47;;
26965;SDS011;14522;52.068;4.414;2022-12-24T12:04:17;29.02;;;4.15;;
26965;SDS011;14522;52.068;4.414;2022-12-24T12:06:48;17.60;;;3.28;;
26965;SDS011;14522;52.068;4.414;2022-12-24T12:09:51;20.38;;;3.60;;
26965;SDS011;14522;52.068;4.414;2022-12-24T12:12:13;24.58;;;3.92;;
26965;SDS011;14522;52.068;4.414;2022-12-24T12:14:50;22.40;;;3.95;;
26965;SDS011;14522;52.068;4.414;2022-12-24T12:17:26;25.85;;;4.32;;
26965;SDS011;14522;52.068;4.414;2022-12-24T12:19:55;19.85;;;3.63;;
26965;SDS011;14522;52.068;4.414;2022-12-24T12:22:27;27.55;;;3.58;;
26965;SDS011;14522;52.068;4.414;2022-12-24T12:24:55;23.95;;;4.88;;
26965;SDS011;14522;52.068;4.414;2022-12-24T12:29:56;15.57;;;2.50;;
26965;SDS011;14522;52.068;4.414;2022-12-24T12:35:20;22.77;;;2.88;;
26965;SDS011;14522;52.068;4.414;2022-12-24T12:38:22;17.67;;;3.10;;
26965;SDS011;14522;52.068;4.414;2022-12-24T12:45:52;23.40;;;4.00;;
26965;SDS011;14522;52.068;4.414;2022-12-24T12:48:24;37.20;;;4.45;;
26965;SDS011;14522;52.068;4.414;2022-12-24T12:53:23;27.42;;;3.63;;
26965;SDS011;14522;52.068;4.414;2022-12-24T12:58:32;25.73;;;3.40;;
26965;SDS011;14522;52.068;4.414;2022-12-24T13:01:04;20.55;;;3.40;;
26965;SDS011;14522;52.068;4.414;2022-12-24T13:14:07;19.52;;;3.28;;
26965;SDS011;14522;52.068;4.414;2022-12-24T13:19:31;20.38;;;2.80;;
26965;SDS011;14522;52.068;4.414;2022-12-24T13:22:03;25.45;;;3.80;;
26965;SDS011;14522;52.068;4.414;2022-12-24T13:24:30;27.05;;;3.80;;
26965;SDS011;14522;52.068;4.414;2022-12-24T13:27:00;20.75;;;3.70;;
26965;SDS011;14522;52.068;4.414;2022-12-24T13:29:28;22.95;;;3.40;;
26965;SDS011;14522;52.068;4.414;2022-12-24T13:32:39;17.10;;;2.50;;
26965;SDS011;14522;52.068;4.414;2022-12-24T13:42:45;17.55;;;2.88;;
26965;SDS011;14522;52.068;4.414;2022-12-24T13:48:01;20.35;;;2.65;;
26965;SDS011;14522;52.068;4.414;2022-12-24T13:50:29;28.65;;;3.10;;
26965;SDS011;14522;52.068;4.414;2022-12-24T13:53:00;26.58;;;3.97;;
26965;SDS011;14522;52.068;4.414;2022-12-24T13:55:26;20.67;;;2.75;;
26965;SDS011;14522;52.068;4.414;2022-12-24T13:57:55;16.35;;;2.53;;
26965;SDS011;14522;52.068;4.414;2022-12-24T14:00:30;20.98;;;3.10;;
26965;SDS011;14522;52.068;4.414;2022-12-24T14:02:59;20.77;;;3.60;;
26965;SDS011;14522;52.068;4.414;2022-12-24T14:05:36;15.35;;;2.97;;
26965;SDS011;14522;52.068;4.414;2022-12-24T14:12:56;18.70;;;2.58;;
26965;SDS011;14522;52.068;4.414;2022-12-24T14:18:08;14.30;;;2.87;;
26965;SDS011;14522;52.068;4.414;2022-12-24T14:20:35;21.45;;;3.80;;
26965;SDS011;14522;52.068;4.414;2022-12-24T14:23:02;14.02;;;2.72;;
26965;SDS011;14522;52.068;4.414;2022-12-24T14:25:30;24.15;;;3.53;;
26965;SDS011;14522;52.068;4.414;2022-12-24T14:28:15;19.85;;;3.42;;
26965;SDS011;14522;52.068;4.414;2022-12-24T14:30:44;27.27;;;3.42;;
26965;SDS011;14522;52.068;4.414;2022-12-24T14:33:53;21.27;;;3.22;;
26965;SDS011;14522;52.068;4.414;2022-12-24T14:36:00;20.25;;;3.85;;
26965;SDS011;14522;52.068;4.414;2022-12-24T14:38:27;16.35;;;2.47;;
26965;SDS011;14522;52.068;4.414;2022-12-24T14:40:58;17.30;;;2.80;;
26965;SDS011;14522;52.068;4.414;2022-12-24T14:53:42;17.45;;;4.03;;
26965;SDS011;14522;52.068;4.414;2022-12-24T14:56:15;17.63;;;3.58;;
26965;SDS011;14522;52.068;4.414;2022-12-24T14:58:43;23.02;;;3.60;;
26965;SDS011;14522;52.068;4.414;2022-12-24T15:04:01;24.17;;;3.28;;
26965;SDS011;14522;52.068;4.414;2022-12-24T15:06:28;24.83;;;4.32;;
26965;SDS011;14522;52.068;4.414;2022-12-24T15:08:56;24.83;;;4.50;;
26965;SDS011;14522;52.068;4.414;2022-12-24T15:11:23;21.42;;;3.58;;
26965;SDS011;14522;52.068;4.414;2022-12-24T15:13:51;27.70;;;3.95;;
26965;SDS011;14522;52.068;4.414;2022-12-24T15:16:26;34.65;;;4.40;;
26965;SDS011;14522;52.068;4.414;2022-12-24T15:18:54;26.27;;;3.95;;
26965;SDS011;14522;52.068;4.414;2022-12-24T15:21:45;28.88;;;3.97;;
26965;SDS011;14522;52.068;4.414;2022-12-24T15:26:54;20.75;;;3.92;;
26965;SDS011;14522;52.068;4.414;2022-12-24T15:29:22;34.35;;;4.60;;
26965;SDS011;14522;52.068;4.414;2022-12-24T15:31:56;20.67;;;3.17;;
26965;SDS011;14522;52.068;4.414;2022-12-24T15:34:36;26.92;;;3.85;;
26965;SDS011;14522;52.068;4.414;2022-12-24T15:39:45;29.13;;;4.07;;
26965;SDS011;14522;52.068;4.414;2022-12-24T15:42:17;26.42;;;4.05;;
26965;SDS011;14522;52.068;4.414;2022-12-24T15:47:20;23.55;;;4.53;;
26965;SDS011;14522;52.068;4.414;2022-12-24T15:49:51;26.00;;;5.20;;
26965;SDS011;14522;52.068;4.414;2022-12-24T15:52:18;29.10;;;4.05;;
26965;SDS011;14522;52.068;4.414;2022-12-24T15:54:46;23.27;;;3.75;;
26965;SDS011;14522;52.068;4.414;2022-12-24T15:57:24;24.83;;;5.00;;
26965;SDS011;14522;52.068;4.414;2022-12-24T15:59:52;26.55;;;4.65;;
26965;SDS011;14522;52.068;4.414;2022-12-24T16:02:25;21.13;;;4.25;;
26965;SDS011;14522;52.068;4.414;2022-12-24T16:04:53;22.85;;;4.72;;
26965;SDS011;14522;52.068;4.414;2022-12-24T16:07:23;29.35;;;5.22;;
26965;SDS011;14522;52.068;4.414;2022-12-24T16:09:50;39.75;;;6.63;;
26965;SDS011;14522;52.068;4.414;2022-12-24T16:12:18;32.88;;;5.65;;
26965;SDS011;14522;52.068;4.414;2022-12-24T16:14:46;22.98;;;5.32;;
26965;SDS011;14522;52.068;4.414;2022-12-24T16:17:18;33.08;;;5.93;;
26965;SDS011;14522;52.068;4.414;2022-12-24T16:19:46;25.13;;;5.95;;
26965;SDS011;14522;52.068;4.414;2022-12-24T16:22:13;35.42;;;6.40;;
26965;SDS011;14522;52.068;4.414;2022-12-24T16:24:58;27.40;;;6.32;;
26965;SDS011;14522;52.068;4.414;2022-12-24T16:27:24;30.38;;;6.25;;
26965;SDS011;14522;52.068;4.414;2022-12-24T16:29:51;24.50;;;5.30;;
26965;SDS011;14522;52.068;4.414;2022-12-24T16:32:31;31.45;;;4.93;;
26965;SDS011;14522;52.068;4.414;2022-12-24T16:34:58;33.35;;;6.63;;
26965;SDS011;14522;52.068;4.414;2022-12-24T16:37:25;27.23;;;4.82;;
26965;SDS011;14522;52.068;4.414;2022-12-24T16:39:51;27.38;;;4.68;;
26965;SDS011;14522;52.068;4.414;2022-12-24T16:42:18;28.35;;;5.07;;
26965;SDS011;14522;52.068;4.414;2022-12-24T16:45:03;24.48;;;4.97;;
26965;SDS011;14522;52.068;4.414;2022-12-24T16:47:30;29.08;;;5.47;;
26965;SDS011;14522;52.068;4.414;2022-12-24T16:50:06;28.58;;;6.40;;
26965;SDS011;14522;52.068;4.414;2022-12-24T16:52:33;34.58;;;5.85;;